Time;durP1;ratioP1;P1;durP2;ratioP2;P2;SDS_P1;SDS_P2;PMS_P1;PMS_P2;Temp;Humidity;BMP_temperature;BMP_pressure;BME280_temperature;BME280_humidity;BME280_pressure;Samples;Min_cycle;Max_cycle;Signal;HPM_P1;HPM_P2
2021/11/29 00:00:44;;;;;;;31.15;16.98;;;;;;;3.24;92.71;96231.75;4992806;28;20052;-57
2021/11/29 00:03:12;;;;;;;31.02;16.42;;;;;;;3.08;92.08;96235.84;4987416;28;20440;-59
2021/11/29 00:05:38;;;;;;;29.80;16.40;;;;;;;3.04;93.17;96231.72;4985801;28;20038;-59
2021/11/29 00:08:04;;;;;;;29.88;16.42;;;;;;;3.18;94.35;96229.44;4984687;28;20032;-56
2021/11/29 00:10:31;;;;;;;30.83;16.55;;;;;;;3.27;92.81;96233.34;4985481;28;20037;-56
2021/11/29 00:12:57;;;;;;;30.05;16.20;;;;;;;3.30;91.88;96229.84;4986423;28;20100;-58
2021/11/29 00:15:23;;;;;;;33.67;17.60;;;;;;;3.23;93.23;96235.22;4988306;28;20588;-58
2021/11/29 00:17:48;;;;;;;34.42;17.13;;;;;;;3.11;92.96;96235.72;4988748;28;20876;-59
2021/11/29 00:20:15;;;;;;;30.10;15.98;;;;;;;3.03;94.66;96238.59;4986596;28;20160;-59
2021/11/29 00:22:41;;;;;;;29.85;14.80;;;;;;;3.40;92.08;96246.59;4989831;28;20060;-57
2021/11/29 00:25:07;;;;;;;29.10;13.93;;;;;;;3.45;94.38;96245.50;4989681;28;20030;-60
2021/11/29 00:27:34;;;;;;;29.40;15.68;;;;;;;3.49;92.09;96241.06;4991333;28;20083;-57
2021/11/29 00:29:59;;;;;;;33.97;17.33;;;;;;;3.42;90.39;96245.66;4990035;28;20029;-58
2021/11/29 00:32:25;;;;;;;25.30;12.48;;;;;;;3.42;93.69;96244.81;4988807;28;20092;-58
2021/11/29 00:34:51;;;;;;;31.15;16.08;;;;;;;3.22;92.83;96238.72;4990544;28;20400;-57
2021/11/29 00:37:16;;;;;;;33.38;16.60;;;;;;;3.44;91.99;96248.16;4989412;28;20035;-58
2021/11/29 00:39:42;;;;;;;35.97;17.60;;;;;;;3.21;91.95;96255.06;4999375;28;20030;-57
2021/11/29 00:42:07;;;;;;;29.50;14.98;;;;;;;3.54;92.51;96249.44;4988880;28;20041;-57
2021/11/29 00:44:33;;;;;;;32.15;16.65;;;;;;;3.19;91.69;96251.69;4989718;28;20038;-56
2021/11/29 00:46:58;;;;;;;32.13;16.90;;;;;;;3.30;90.74;96255.59;4989661;28;20045;-57
2021/11/29 00:49:24;;;;;;;33.17;17.63;;;;;;;3.47;89.91;96253.16;4991128;28;20034;-56
2021/11/29 00:51:49;;;;;;;32.13;16.27;;;;;;;3.52;90.08;96255.56;4990792;28;20049;-59
2021/11/29 00:54:15;;;;;;;36.17;16.48;;;;;;;3.23;90.41;96257.56;4996058;28;20957;-56
2021/11/29 00:56:40;;;;;;;33.22;17.13;;;;;;;3.38;90.68;96256.13;4988065;28;20546;-58
2021/11/29 00:59:06;;;;;;;32.17;15.48;;;;;;;3.06;92.56;96258.25;4989945;28;20157;-57
2021/11/29 01:01:32;;;;;;;32.65;16.48;;;;;;;3.21;91.28;96257.63;4991628;28;20176;-58
2021/11/29 01:03:58;;;;;;;28.55;13.52;;;;;;;3.57;90.21;96259.63;4988109;28;20036;-56
2021/11/29 01:06:23;;;;;;;31.25;14.85;;;;;;;3.55;92.83;96261.44;4991519;28;20512;-57
2021/11/29 01:08:48;;;;;;;31.48;15.23;;;;;;;3.58;90.93;96271.59;4990801;28;20029;-57
2021/11/29 01:11:14;;;;;;;31.88;16.67;;;;;;;3.19;90.80;96274.06;4986814;28;20035;-58
2021/11/29 01:13:40;;;;;;;33.72;17.15;;;;;;;3.22;92.13;96274.78;4991157;28;20815;-58
2021/11/29 01:16:07;;;;;;;33.45;17.35;;;;;;;3.15;92.79;96280.25;4988104;28;20042;-58
2021/11/29 01:18:32;;;;;;;35.58;16.45;;;;;;;3.14;94.35;96279.38;4987302;28;20484;-60
2021/11/29 01:20:59;;;;;;;33.55;16.83;;;;;;;2.94;94.82;96284.47;4990697;28;20126;-59
2021/11/29 01:23:24;;;;;;;33.53;16.38;;;;;;;3.13;95.17;96293.16;4990524;28;20592;-58
2021/11/29 01:25:53;;;;;;;34.65;17.90;;;;;;;2.93;93.51;96298.25;4987052;28;20556;-58
2021/11/29 01:28:19;;;;;;;32.95;15.82;;;;;;;3.30;92.55;96299.41;4989495;28;20747;-59
2021/11/29 01:30:44;;;;;;;31.67;16.23;;;;;;;3.28;91.99;96300.28;4989396;28;20042;-58
2021/11/29 01:33:10;;;;;;;29.42;15.40;;;;;;;3.11;93.17;96296.69;4989089;28;20034;-59
2021/11/29 01:35:35;;;;;;;32.63;17.10;;;;;;;2.81;93.16;96297.81;4987035;28;20038;-58
2021/11/29 01:38:01;;;;;;;38.33;17.67;;;;;;;3.02;94.90;96300.47;4990309;28;20063;-59
2021/11/29 01:40:29;;;;;;;26.42;14.82;;;;;;;3.30;92.21;96299.41;4989343;28;20100;-59
2021/11/29 01:42:56;;;;;;;30.67;16.45;;;;;;;3.30;91.62;96296.84;4988885;28;20030;-58
2021/11/29 01:45:22;;;;;;;30.08;15.40;;;;;;;3.15;91.93;96299.09;4988300;28;20030;-59
2021/11/29 01:47:48;;;;;;;9.13;4.72;;;;;;;3.58;92.60;96297.38;4988775;28;20141;-60
2021/11/29 01:50:13;;;;;;;34.25;15.95;;;;;;;3.61;91.67;96291.28;4987372;28;20101;-58
2021/11/29 01:52:39;;;;;;;31.48;16.35;;;;;;;3.36;89.55;96286.28;4990891;28;20396;-58
2021/11/29 01:55:05;;;;;;;35.28;16.00;;;;;;;3.24;93.01;96293.59;4986022;28;20313;-60
2021/11/29 01:57:30;;;;;;;34.97;16.52;;;;;;;3.26;92.66;96289.22;4988980;28;20030;-58
2021/11/29 01:59:55;;;;;;;30.52;15.68;;;;;;;3.58;89.93;96302.53;4989829;28;20038;-58
2021/11/29 02:02:22;;;;;;;32.03;16.38;;;;;;;3.22;90.71;96295.38;4992235;28;20547;-59
2021/11/29 02:04:48;;;;;;;32.67;16.77;;;;;;;3.15;92.36;96304.25;4988443;28;20491;-58
2021/11/29 02:07:13;;;;;;;33.70;15.68;;;;;;;2.86;93.21;96298.47;4989528;28;20029;-58
2021/11/29 02:09:38;;;;;;;35.03;16.52;;;;;;;3.10;92.98;96301.00;4988615;28;20029;-58
2021/11/29 02:12:04;;;;;;;30.73;16.15;;;;;;;2.91;91.73;96295.72;4987090;28;21109;-58
2021/11/29 02:14:30;;;;;;;31.73;16.27;;;;;;;2.94;91.93;96299.91;4988748;28;20049;-58
2021/11/29 02:16:55;;;;;;;35.60;16.90;;;;;;;3.08;90.43;96297.66;4988726;28;20044;-59
2021/11/29 02:19:22;;;;;;;32.50;16.52;;;;;;;2.99;91.48;96308.31;4987586;28;20025;-61
2021/11/29 02:21:47;;;;;;;32.20;16.00;;;;;;;3.08;90.47;96302.81;4987717;28;20033;-60
2021/11/29 02:24:13;;;;;;;34.42;17.20;;;;;;;2.99;91.26;96308.31;4991508;28;20246;-58
2021/11/29 02:26:38;;;;;;;30.33;16.20;;;;;;;2.91;91.95;96312.94;4989338;28;20784;-59
2021/11/29 02:29:12;;;;;;;35.42;16.92;;;;;;;3.11;92.21;96318.16;4988821;28;20033;-59
2021/11/29 02:31:46;;;;;;;33.45;16.58;;;;;;;3.14;90.44;96307.72;4989537;28;20124;-59
2021/11/29 02:34:24;;;;;;;31.92;16.67;;;;;;;3.11;91.41;96313.00;4992474;28;20037;-59
2021/11/29 02:36:52;;;;;;;34.55;17.15;;;;;;;3.10;91.50;96319.03;4987675;28;20049;-58
2021/11/29 02:39:19;;;;;;;32.58;16.60;;;;;;;3.14;91.29;96320.59;4986752;28;20030;-58
2021/11/29 02:41:46;;;;;;;34.20;16.70;;;;;;;3.24;91.66;96329.66;4988006;28;20038;-58
2021/11/29 02:44:12;;;;;;;31.92;16.35;;;;;;;3.12;91.54;96324.13;4988661;28;20042;-59
2021/11/29 02:46:39;;;;;;;34.10;16.67;;;;;;;3.30;91.87;96322.59;4988208;28;20057;-59
2021/11/29 02:49:07;;;;;;;31.35;16.83;;;;;;;3.23;91.08;96322.81;4987295;28;20970;-58
2021/11/29 02:51:44;;;;;;;32.65;16.23;;;;;;;3.02;91.60;96323.66;4987095;28;20052;-58
2021/11/29 02:54:11;;;;;;;34.78;16.70;;;;;;;3.21;91.46;96328.94;5001148;28;20030;-59
2021/11/29 02:56:40;;;;;;;31.17;17.20;;;;;;;2.96;91.87;96332.47;4986547;28;20173;-61
2021/11/29 02:59:11;;;;;;;31.15;16.92;;;;;;;2.98;93.41;96327.22;4987176;28;20566;-58
2021/11/29 03:01:40;;;;;;;38.13;17.45;;;;;;;2.96;93.04;96323.88;4985736;28;20460;-57
2021/11/29 03:04:06;;;;;;;34.58;16.90;;;;;;;2.87;93.18;96336.19;4989013;28;20054;-61
2021/11/29 03:06:31;;;;;;;35.33;17.00;;;;;;;3.08;91.89;96333.72;4987864;28;20076;-59
2021/11/29 03:08:57;;;;;;;35.58;16.98;;;;;;;3.05;93.95;96344.13;4986876;28;20026;-60
2021/11/29 03:11:24;;;;;;;32.08;16.75;;;;;;;2.94;93.64;96341.13;4988342;28;20045;-58
2021/11/29 03:13:50;;;;;;;35.15;15.80;;;;;;;2.94;93.37;96341.97;4989293;28;20113;-59
2021/11/29 03:16:15;;;;;;;28.90;14.15;;;;;;;3.12;94.83;96345.56;4986455;28;20101;-58
2021/11/29 03:18:44;;;;;;;31.50;15.77;;;;;;;3.26;91.36;96343.31;4987587;28;20470;-59
2021/11/29 03:21:14;;;;;;;35.13;17.52;;;;;;;3.26;91.90;96342.50;4988682;28;20053;-58
2021/11/29 03:23:40;;;;;;;30.88;16.67;;;;;;;3.21;91.74;96341.81;4992526;28;20611;-59
2021/11/29 03:26:08;;;;;;;31.38;15.90;;;;;;;3.35;91.64;96343.88;4984824;28;20038;-58
2021/11/29 03:28:40;;;;;;;29.88;15.65;;;;;;;3.25;91.35;96341.66;4988126;28;20857;-59
2021/11/29 03:31:07;;;;;;;31.20;15.70;;;;;;;3.24;91.76;96350.28;4987732;28;20038;-58
2021/11/29 03:33:33;;;;;;;30.75;14.85;;;;;;;3.26;91.23;96339.91;4987619;28;20061;-59
2021/11/29 03:35:59;;;;;;;27.95;13.18;;;;;;;3.41;94.25;96347.03;4988576;28;20049;-58
2021/11/29 03:38:24;;;;;;;31.85;17.15;;;;;;;3.30;91.28;96361.25;4987404;28;20057;-59
2021/11/29 03:40:50;;;;;;;33.30;16.90;;;;;;;3.23;92.36;96358.88;4986241;28;20617;-59
2021/11/29 03:43:15;;;;;;;29.38;15.13;;;;;;;3.38;91.40;96359.19;4989044;28;20480;-58
2021/11/29 03:45:40;;;;;;;29.15;14.57;;;;;;;3.50;93.40;96366.47;4987234;28;20109;-58
2021/11/29 03:48:06;;;;;;;32.08;15.82;;;;;;;3.72;90.99;96365.63;4989901;28;20036;-57
2021/11/29 03:50:31;;;;;;;30.77;16.33;;;;;;;3.43;91.53;96368.44;4985873;28;20050;-58
2021/11/29 03:52:57;;;;;;;30.20;15.57;;;;;;;3.49;91.50;96369.94;4987924;28;20399;-58
2021/11/29 03:55:22;;;;;;;28.42;15.00;;;;;;;3.54;90.98;96372.34;4987832;28;20485;-59
2021/11/29 03:57:48;;;;;;;29.05;14.65;;;;;;;3.56;90.36;96376.53;4987124;28;20667;-59
2021/11/29 04:00:14;;;;;;;29.92;14.57;;;;;;;3.51;90.88;96378.47;4997279;28;20034;-61
2021/11/29 04:02:40;;;;;;;27.42;12.13;;;;;;;4.12;96.95;96369.16;4986111;28;20109;-59
2021/11/29 04:05:06;;;;;;;43.10;14.60;;;;;;;4.22;99.90;96380.78;4988599;28;20045;-60
2021/11/29 04:07:31;;;;;;;45.60;13.23;;;;;;;4.32;97.36;96376.91;4988303;28;20036;-60
2021/11/29 04:09:56;;;;;;;489.85;27.42;;;;;;;4.98;100.00;96391.28;4985922;28;20421;-59
2021/11/29 04:12:22;;;;;;;166.07;21.00;;;;;;;4.97;97.57;96394.81;4986898;28;20408;-59
2021/11/29 04:14:48;;;;;;;698.60;40.95;;;;;;;4.88;100.00;96392.63;4987902;28;20037;-57
2021/11/29 04:17:13;;;;;;;837.15;44.30;;;;;;;5.06;100.00;96385.81;4986528;28;20046;-58
2021/11/29 04:19:42;;;;;;;171.50;18.30;;;;;;;5.14;100.00;96387.13;4987087;28;20029;-57
2021/11/29 04:22:08;;;;;;;859.38;47.85;;;;;;;4.71;100.00;96388.19;4985780;28;20058;-60
2021/11/29 04:24:36;;;;;;;215.77;24.25;;;;;;;4.22;95.95;96388.53;4988880;28;20400;-60
2021/11/29 04:27:03;;;;;;;83.68;16.38;;;;;;;4.46;96.62;96388.41;4994361;28;20045;-58
2021/11/29 04:29:30;;;;;;;94.88;18.58;;;;;;;4.02;91.46;96390.16;4988512;28;20044;-59
2021/11/29 04:31:55;;;;;;;998.28;61.67;;;;;;;5.59;100.00;96393.69;4986428;28;20042;-59
2021/11/29 04:34:21;;;;;;;679.22;41.33;;;;;;;4.63;100.00;96396.25;4988015;28;20075;-59
2021/11/29 04:36:47;;;;;;;68.25;13.98;;;;;;;4.58;100.00;96398.22;4986123;28;20034;-58
2021/11/29 04:39:13;;;;;;;217.43;20.75;;;;;;;4.47;100.00;96401.25;4988445;28;20564;-59
2021/11/29 04:41:39;;;;;;;46.55;15.45;;;;;;;4.11;92.35;96403.59;4987958;28;20610;-57
2021/11/29 04:44:06;;;;;;;178.90;19.55;;;;;;;4.46;97.41;96403.88;4985338;28;20030;-58
2021/11/29 04:46:32;;;;;;;28.80;13.45;;;;;;;4.55;94.88;96408.66;4986813;28;20137;-59
2021/11/29 04:48:57;;;;;;;24.52;10.23;;;;;;;4.62;94.59;96415.25;4987603;28;20083;-59
2021/11/29 04:51:22;;;;;;;25.75;14.30;;;;;;;3.69;89.49;96414.72;4984976;28;20066;-58
2021/11/29 04:53:48;;;;;;;26.80;13.20;;;;;;;3.70;90.12;96413.84;4984815;28;20022;-58
2021/11/29 04:56:13;;;;;;;28.55;14.65;;;;;;;3.28;93.00;96413.66;4984668;28;20081;-59
2021/11/29 04:58:39;;;;;;;26.40;14.75;;;;;;;3.49;89.09;96416.31;4989673;28;20042;-60
2021/11/29 05:01:04;;;;;;;25.05;13.48;;;;;;;3.35;91.93;96429.75;4987744;28;20408;-57
2021/11/29 05:03:30;;;;;;;25.33;12.63;;;;;;;3.68;89.49;96437.09;4988999;28;20361;-57
2021/11/29 05:05:55;;;;;;;24.88;12.57;;;;;;;3.57;92.38;96444.41;4991039;28;20717;-59
2021/11/29 05:08:20;;;;;;;18.02;9.57;;;;;;;3.82;90.83;96444.28;4992618;28;20088;-59
2021/11/29 05:10:46;;;;;;;29.13;12.27;;;;;;;4.10;100.00;96448.34;4990956;28;20039;-59
2021/11/29 05:13:13;;;;;;;28.58;13.77;;;;;;;3.64;92.61;96448.44;4989668;28;20419;-58
2021/11/29 05:15:38;;;;;;;26.48;13.30;;;;;;;3.52;93.76;96457.47;4991952;28;20050;-59
2021/11/29 05:18:04;;;;;;;23.77;13.18;;;;;;;3.33;94.04;96461.59;4988497;28;20053;-58
2021/11/29 05:20:29;;;;;;;24.63;13.20;;;;;;;3.32;92.53;96455.63;4989011;28;20039;-58
2021/11/29 05:22:55;;;;;;;26.05;14.02;;;;;;;3.24;92.70;96468.78;4991051;28;20022;-58
2021/11/29 05:25:21;;;;;;;25.08;13.57;;;;;;;3.65;95.22;96469.00;4990685;28;20030;-58
2021/11/29 05:27:47;;;;;;;23.58;12.70;;;;;;;3.46;90.96;96466.28;4989296;28;20026;-59
2021/11/29 05:30:13;;;;;;;23.20;12.57;;;;;;;3.63;98.13;96475.13;4990574;28;20212;-59
2021/11/29 05:32:38;;;;;;;19.98;12.13;;;;;;;3.51;89.35;96473.84;4989786;28;20030;-57
2021/11/29 05:35:05;;;;;;;23.40;12.57;;;;;;;3.19;89.89;96477.59;4989081;28;20050;-56
2021/11/29 05:37:31;;;;;;;22.27;11.60;;;;;;;3.60;96.73;96483.81;4988647;28;20026;-56
2021/11/29 05:39:57;;;;;;;21.33;11.18;;;;;;;3.95;89.82;96478.19;4990769;28;20081;-56
2021/11/29 05:42:22;;;;;;;20.83;11.65;;;;;;;3.36;87.96;96482.97;4988543;28;20137;-58
2021/11/29 05:44:50;;;;;;;20.27;12.32;;;;;;;3.48;89.34;96486.84;4995253;28;20657;-56
2021/11/29 05:47:17;;;;;;;20.02;11.82;;;;;;;3.42;87.66;96482.75;4989171;28;20044;-58
2021/11/29 05:49:42;;;;;;;20.55;11.90;;;;;;;3.41;87.32;96490.53;4989933;28;20109;-57
2021/11/29 05:52:08;;;;;;;19.75;11.32;;;;;;;3.43;89.76;96494.72;4989487;28;20042;-57
2021/11/29 05:54:33;;;;;;;19.23;10.98;;;;;;;3.51;92.86;96497.03;4991620;28;20044;-56
2021/11/29 05:56:59;;;;;;;16.88;8.95;;;;;;;3.65;90.91;96499.94;4990625;28;20068;-56
2021/11/29 05:59:24;;;;;;;19.02;9.85;;;;;;;3.50;91.93;96505.66;4991155;28;20044;-56
2021/11/29 06:01:49;;;;;;;19.83;11.48;;;;;;;3.58;92.38;96502.78;4987842;28;20041;-56
2021/11/29 06:04:15;;;;;;;8.95;4.95;;;;;;;4.39;100.00;96510.00;4990969;28;20036;-59
2021/11/29 06:06:42;;;;;;;22.30;9.43;;;;;;;4.80;96.41;96512.63;4991888;28;20039;-56
2021/11/29 06:09:08;;;;;;;21.08;10.18;;;;;;;4.15;97.28;96518.69;4999303;28;20030;-57
2021/11/29 06:11:33;;;;;;;24.10;12.48;;;;;;;3.96;95.51;96521.97;4990639;28;20044;-56
2021/11/29 06:13:58;;;;;;;15.95;9.05;;;;;;;4.08;88.23;96518.09;4990123;28;20120;-57
2021/11/29 06:16:24;;;;;;;18.60;10.82;;;;;;;3.59;88.96;96525.94;4992429;28;20491;-56
2021/11/29 06:18:49;;;;;;;19.23;11.18;;;;;;;3.46;90.33;96530.72;4992342;28;20030;-58
2021/11/29 06:21:15;;;;;;;20.35;11.75;;;;;;;3.48;91.73;96525.50;4990726;28;20057;-56
2021/11/29 06:23:40;;;;;;;18.27;7.78;;;;;;;3.93;99.18;96529.00;4991311;28;20027;-56
2021/11/29 06:26:06;;;;;;;22.55;12.27;;;;;;;3.61;91.30;96531.06;4991448;28;20274;-58
2021/11/29 06:28:31;;;;;;;21.05;10.77;;;;;;;3.53;91.69;96543.38;4991634;28;20113;-57
2021/11/29 06:30:57;;;;;;;18.13;7.28;;;;;;;4.05;100.00;96550.00;4989180;28;20452;-59
2021/11/29 06:33:23;;;;;;;21.20;11.95;;;;;;;3.72;91.25;96543.56;4994227;28;20041;-60
2021/11/29 06:35:50;;;;;;;24.40;10.88;;;;;;;3.65;97.82;96551.50;4990773;28;20046;-61
2021/11/29 06:38:17;;;;;;;23.05;12.20;;;;;;;3.61;89.77;96560.25;4990288;28;20025;-60
2021/11/29 06:40:48;;;;;;;21.38;11.77;;;;;;;3.64;87.26;96564.47;4991329;28;20112;-56
2021/11/29 06:43:14;;;;;;;22.58;12.63;;;;;;;3.44;90.84;96562.59;4992427;28;20034;-61
2021/11/29 06:45:40;;;;;;;23.65;11.48;;;;;;;3.79;91.86;96563.06;4991310;28;20042;-59
2021/11/29 06:48:05;;;;;;;22.85;12.13;;;;;;;3.55;89.56;96565.63;4988944;28;20042;-58
2021/11/29 06:50:31;;;;;;;22.85;12.60;;;;;;;3.33;93.51;96569.84;4992230;28;20125;-61
2021/11/29 06:52:56;;;;;;;22.60;11.50;;;;;;;3.83;88.77;96574.94;4992964;28;20149;-56
2021/11/29 06:55:22;;;;;;;25.15;13.05;;;;;;;3.88;90.00;96580.78;4989555;28;20114;-61
2021/11/29 06:57:49;;;;;;;24.48;12.85;;;;;;;3.82;90.91;96573.25;4986875;28;20033;-59
2021/11/29 07:00:17;;;;;;;24.13;11.10;;;;;;;3.67;91.34;96588.38;4988391;28;20137;-56
2021/11/29 07:02:43;;;;;;;24.17;12.77;;;;;;;3.48;91.91;96588.19;4991228;28;20589;-58
2021/11/29 07:05:10;;;;;;;32.50;8.27;;;;;;;5.22;100.00;96597.00;4999381;28;20017;-56
2021/11/29 07:07:35;;;;;;;27.10;10.23;;;;;;;4.15;94.69;96596.09;4990640;28;20768;-57
2021/11/29 07:10:01;;;;;;;25.83;6.63;;;;;;;5.83;100.00;96607.34;4990118;28;20080;-57
2021/11/29 07:12:26;;;;;;;42.33;13.52;;;;;;;4.67;89.58;96601.84;4990264;28;20041;-56
2021/11/29 07:14:52;;;;;;;26.95;10.68;;;;;;;4.89;91.37;96608.72;4991284;28;20084;-58
2021/11/29 07:17:18;;;;;;;22.60;6.88;;;;;;;6.47;98.86;96612.22;4991338;28;20045;-58
2021/11/29 07:19:44;;;;;;;109.63;17.48;;;;;;;6.25;94.67;96616.69;4993134;28;20923;-56
2021/11/29 07:22:09;;;;;;;42.38;10.85;;;;;;;6.64;100.00;96621.78;4990407;28;20034;-57
2021/11/29 07:24:34;;;;;;;69.18;14.60;;;;;;;8.60;100.00;96635.22;4990232;28;20025;-58
2021/11/29 07:27:00;;;;;;;24.83;11.82;;;;;;;7.64;100.00;96623.81;4989015;28;20171;-57
2021/11/29 07:29:26;;;;;;;34.78;8.25;;;;;;;8.11;100.00;96638.69;4989404;28;20035;-57
2021/11/29 07:31:51;;;;;;;15.50;6.10;;;;;;;7.95;100.00;96640.41;4990301;28;20091;-57
2021/11/29 07:34:17;;;;;;;13.65;6.45;;;;;;;8.30;98.22;96638.53;4990790;28;20030;-58
2021/11/29 07:36:42;;;;;;;14.43;5.95;;;;;;;12.41;100.00;96642.00;4990803;28;20049;-57
2021/11/29 07:39:10;;;;;;;12.25;5.70;;;;;;;12.14;100.00;96656.03;4989860;28;20708;-58
2021/11/29 07:41:36;;;;;;;14.70;7.07;;;;;;;10.05;86.56;96648.56;4989694;28;20034;-57
2021/11/29 07:44:01;;;;;;;9.95;5.63;;;;;;;11.76;97.81;96649.00;4990817;28;20050;-58
2021/11/29 07:46:26;;;;;;;20.67;18.58;;;;;;;10.68;88.11;96651.69;4987625;28;20038;-58
2021/11/29 07:48:52;;;;;;;13.68;8.50;;;;;;;9.65;84.47;96662.22;4990308;28;20027;-58
2021/11/29 07:51:17;;;;;;;11.40;6.75;;;;;;;9.34;86.78;96662.31;4987955;28;20400;-59
2021/11/29 07:53:43;;;;;;;10.10;5.97;;;;;;;9.00;86.32;96659.00;4989859;28;20033;-59
2021/11/29 07:56:08;;;;;;;8.18;4.55;;;;;;;12.39;99.97;96664.81;4991798;28;20061;-59
2021/11/29 07:58:34;;;;;;;10.77;6.43;;;;;;;9.42;97.19;96666.13;4991077;28;20022;-59
2021/11/29 08:00:59;;;;;;;9.40;5.05;;;;;;;11.07;99.65;96673.59;4987832;28;20070;-60
2021/11/29 08:03:25;;;;;;;9.63;5.05;;;;;;;11.43;100.00;96672.13;4990548;28;20030;-57
2021/11/29 08:05:50;;;;;;;12.57;7.32;;;;;;;9.64;83.76;96670.94;4993917;28;20038;-61
2021/11/29 08:08:16;;;;;;;12.10;5.53;;;;;;;11.67;95.10;96682.72;4990165;28;20602;-58
2021/11/29 08:10:41;;;;;;;10.38;5.70;;;;;;;11.22;87.32;96685.66;4989832;28;20074;-59
2021/11/29 08:13:09;;;;;;;9.65;4.65;;;;;;;11.33;96.67;96680.56;4986384;28;20172;-60
2021/11/29 08:15:37;;;;;;;8.70;4.82;;;;;;;12.67;100.00;96683.81;4987959;28;20045;-59
2021/11/29 08:18:07;;;;;;;9.52;5.60;;;;;;;11.81;95.42;96700.09;4989016;28;20054;-58
2021/11/29 08:20:34;;;;;;;7.28;4.43;;;;;;;12.00;100.00;96695.34;4990707;28;20042;-61
2021/11/29 08:22:59;;;;;;;8.73;4.75;;;;;;;13.37;81.35;96692.81;4988414;28;20030;-59
2021/11/29 08:25:25;;;;;;;18.45;8.98;;;;;;;10.33;68.89;96699.03;4987140;28;20041;-58
2021/11/29 08:27:51;;;;;;;7.05;4.35;;;;;;;12.00;81.67;96697.94;4990881;28;20408;-58
2021/11/29 08:30:19;;;;;;;7.85;4.40;;;;;;;13.08;83.36;96698.31;4991077;28;20037;-58
2021/11/29 08:32:45;;;;;;;7.95;4.38;;;;;;;13.82;80.67;96701.66;4988517;28;20484;-59
2021/11/29 08:35:13;;;;;;;8.30;5.03;;;;;;;11.42;68.23;96696.56;4988061;28;20026;-61
2021/11/29 08:37:43;;;;;;;6.97;4.40;;;;;;;15.28;79.68;96709.69;5010948;28;20030;-59
2021/11/29 08:40:09;;;;;;;7.32;4.53;;;;;;;12.51;75.01;96704.94;4994376;28;20034;-58
2021/11/29 08:42:34;;;;;;;6.70;4.40;;;;;;;14.87;80.47;96717.28;4993347;28;20033;-57
2021/11/29 08:45:02;;;;;;;10.68;5.63;;;;;;;10.89;94.86;96712.94;4991011;28;20033;-59
2021/11/29 08:47:27;;;;;;;6.22;4.05;;;;;;;13.92;78.47;96714.91;4992918;28;20108;-58
2021/11/29 08:49:54;;;;;;;6.75;4.53;;;;;;;14.06;74.18;96722.56;4992493;28;20034;-59
2021/11/29 08:52:20;;;;;;;6.65;4.25;;;;;;;13.77;82.50;96721.31;4994965;28;20033;-58
2021/11/29 08:54:46;;;;;;;7.53;5.00;;;;;;;13.08;79.08;96719.25;4991755;28;20089;-60
2021/11/29 08:57:11;;;;;;;8.00;4.68;;;;;;;11.02;69.20;96731.28;4992876;28;20069;-58
2021/11/29 08:59:37;;;;;;;11.23;7.13;;;;;;;12.17;66.74;96737.78;4992711;28;20053;-59
2021/11/29 09:02:03;;;;;;;7.40;4.40;;;;;;;13.95;71.96;96734.78;4991385;28;20038;-60
2021/11/29 09:04:29;;;;;;;6.50;4.32;;;;;;;12.80;78.17;96736.91;4996112;28;20085;-59
2021/11/29 09:06:55;;;;;;;7.82;5.47;;;;;;;12.19;63.49;96733.31;4991013;28;20046;-60
2021/11/29 09:09:21;;;;;;;7.40;5.00;;;;;;;13.81;77.65;96733.22;4992017;28;20089;-59
2021/11/29 09:11:47;;;;;;;7.75;4.93;;;;;;;13.68;76.40;96734.13;4992199;28;20060;-60
2021/11/29 09:14:13;;;;;;;5.82;3.92;;;;;;;15.69;72.57;96739.66;4994297;28;20420;-61
2021/11/29 09:16:38;;;;;;;6.00;3.95;;;;;;;15.14;63.31;96745.75;4992265;28;20135;-60
2021/11/29 09:19:05;;;;;;;7.38;4.13;;;;;;;14.05;70.71;96752.34;4994564;28;20037;-57
2021/11/29 09:21:31;;;;;;;7.13;4.47;;;;;;;15.11;66.06;96759.16;4994296;28;20040;-58
2021/11/29 09:23:56;;;;;;;5.93;3.90;;;;;;;12.74;83.50;96758.28;4991814;28;20643;-59
2021/11/29 09:26:22;;;;;;;6.38;4.40;;;;;;;10.65;74.47;96771.84;4995490;28;20049;-58
2021/11/29 09:28:47;;;;;;;12.27;8.30;;;;;;;10.74;75.56;96771.28;4995764;28;20025;-58
2021/11/29 09:31:13;;;;;;;7.35;4.22;;;;;;;11.17;76.59;96774.69;4991316;28;20065;-58
2021/11/29 09:33:39;;;;;;;11.40;8.15;;;;;;;10.61;61.96;96774.63;4992290;28;20038;-60
2021/11/29 09:36:05;;;;;;;7.85;4.05;;;;;;;13.89;73.47;96778.03;4992317;28;20046;-60
2021/11/29 09:38:32;;;;;;;5.85;3.72;;;;;;;12.59;68.55;96775.88;4992725;28;20136;-58
2021/11/29 09:40:58;;;;;;;6.85;4.43;;;;;;;12.70;64.88;96770.75;4992687;28;20053;-58
2021/11/29 09:43:24;;;;;;;5.90;3.90;;;;;;;14.93;65.69;96773.72;4981252;28;20073;-60
2021/11/29 09:45:51;;;;;;;6.25;3.92;;;;;;;14.14;58.73;96782.28;4993274;28;20905;-57
2021/11/29 09:48:18;;;;;;;6.13;3.65;;;;;;;16.30;66.48;96781.97;4993295;28;20077;-59
2021/11/29 09:50:47;;;;;;;5.32;3.38;;;;;;;15.93;68.71;96782.34;4997556;28;20038;-59
2021/11/29 09:53:18;;;;;;;10.63;6.22;;;;;;;13.24;62.17;96774.00;4992216;28;20062;-60
2021/11/29 09:55:45;;;;;;;7.03;3.97;;;;;;;13.17;69.67;96791.06;4992190;28;20119;-60
2021/11/29 09:58:11;;;;;;;5.55;3.63;;;;;;;15.59;68.94;96782.44;4995266;28;20027;-60
2021/11/29 10:00:42;;;;;;;6.95;4.63;;;;;;;13.64;72.01;96776.41;4993197;28;20111;-58
2021/11/29 10:03:08;;;;;;;7.10;4.50;;;;;;;15.13;54.93;96786.13;4993299;28;20068;-59
2021/11/29 10:05:36;;;;;;;6.70;4.65;;;;;;;14.69;70.99;96787.78;4994394;28;20069;-58
2021/11/29 10:08:34;;;;;;;6.90;4.05;;;;;;;15.44;66.64;96781.06;4994147;28;20518;-61
2021/11/29 10:11:11;;;;;;;7.53;4.07;;;;;;;13.49;74.17;96786.16;4992772;28;20046;-59
2021/11/29 10:13:48;;;;;;;4.85;3.40;;;;;;;15.19;70.41;96790.88;4993563;28;20036;-60
2021/11/29 10:16:32;;;;;;;7.85;5.00;;;;;;;14.81;68.64;96786.00;4994066;28;20137;-59
2021/11/29 10:18:58;;;;;;;6.70;3.80;;;;;;;17.99;60.61;96781.44;4993328;28;20531;-60
2021/11/29 10:21:23;;;;;;;4.50;3.40;;;;;;;16.02;66.56;96782.56;4975452;28;20134;-59
2021/11/29 10:23:52;;;;;;;6.32;4.03;;;;;;;13.53;73.77;96787.66;4993601;28;20049;-58
2021/11/29 10:26:22;;;;;;;5.78;3.70;;;;;;;13.60;69.23;96788.03;4991811;28;20126;-59
2021/11/29 10:28:55;;;;;;;5.85;3.72;;;;;;;13.61;63.98;96790.53;5002646;28;20377;-60
2021/11/29 10:31:37;;;;;;;6.43;3.40;;;;;;;11.85;65.06;96793.00;4992329;28;20042;-59
2021/11/29 10:34:07;;;;;;;5.95;3.47;;;;;;;14.27;56.56;96792.69;4993245;28;20149;-58
2021/11/29 10:36:38;;;;;;;7.03;3.70;;;;;;;15.67;63.47;96794.13;4992630;28;20048;-58
2021/11/29 10:39:19;;;;;;;5.22;3.35;;;;;;;17.04;62.15;96791.50;4989917;28;20702;-60
2021/11/29 10:41:47;;;;;;;5.25;3.15;;;;;;;15.62;57.97;96802.38;4991048;28;20046;-60
2021/11/29 10:44:19;;;;;;;5.30;3.28;;;;;;;15.51;63.11;96800.63;4993804;28;20055;-58
2021/11/29 10:46:48;;;;;;;8.23;4.28;;;;;;;14.51;63.78;96800.50;4991256;28;20042;-58
2021/11/29 10:49:15;;;;;;;6.55;3.50;;;;;;;16.62;60.93;96807.34;4991506;28;20026;-58
2021/11/29 10:51:43;;;;;;;5.10;3.35;;;;;;;16.11;55.61;96803.69;4990464;28;20046;-60
2021/11/29 10:54:12;;;;;;;5.63;3.20;;;;;;;16.13;62.42;96807.00;4988659;28;20033;-59
2021/11/29 10:56:40;;;;;;;6.55;3.42;;;;;;;16.83;60.07;96811.78;4989471;28;20205;-60
2021/11/29 10:59:08;;;;;;;4.97;3.25;;;;;;;14.89;59.62;96809.88;4991845;28;20065;-60
2021/11/29 11:01:37;;;;;;;4.70;3.10;;;;;;;16.62;59.01;96812.63;4992313;28;20038;-59
2021/11/29 11:04:05;;;;;;;5.50;3.03;;;;;;;15.01;63.62;96813.34;4990735;28;20022;-59
2021/11/29 11:06:39;;;;;;;6.75;4.28;;;;;;;11.92;59.56;96820.44;4992137;28;20034;-60
2021/11/29 11:09:24;;;;;;;5.70;3.17;;;;;;;15.50;54.93;96808.63;4991088;28;20029;-59
2021/11/29 11:11:54;;;;;;;6.32;2.92;;;;;;;17.63;58.01;96813.59;4989596;28;20060;-59
2021/11/29 11:14:20;;;;;;;5.70;3.22;;;;;;;17.70;56.64;96808.63;4990895;28;20030;-60
2021/11/29 11:17:00;;;;;;;5.65;2.90;;;;;;;17.30;56.53;96817.41;4989531;28;20097;-59
2021/11/29 11:19:27;;;;;;;4.72;2.83;;;;;;;17.97;56.74;96820.31;4990992;28;20101;-59
2021/11/29 11:21:55;;;;;;;4.38;2.92;;;;;;;17.07;59.37;96825.47;4990370;28;20635;-58
2021/11/29 11:24:27;;;;;;;8.00;4.78;;;;;;;15.31;60.11;96819.75;4991418;28;20083;-58